Time;durP1;ratioP1;P1;durP2;ratioP2;P2;SDS_P1;SDS_P2;PMS_P1;PMS_P2;Temp;Humidity;BMP_temperature;BMP_pressure;BME280_temperature;BME280_humidity;BME280_pressure;Samples;Min_cycle;Max_cycle;Signal;HPM_P1;HPM_P2
2023/06/06 00:00:29;;;;;;;3.15;2.83;;;20.20;49.70;;;;;;945223;149;27316;-77
2023/06/06 00:02:56;;;;;;;2.77;2.58;;;20.20;49.90;;;;;;930072;151;27291;-77
2023/06/06 00:05:25;;;;;;;3.33;2.90;;;20.10;50.00;;;;;;968994;145;27280;-79
2023/06/06 00:07:49;;;;;;;3.87;2.80;;;20.10;50.20;;;;;;968348;145;27331;-77
2023/06/06 00:10:16;;;;;;;4.97;3.02;;;20.00;50.30;;;;;;945187;148;27325;-76
2023/06/06 00:12:43;;;;;;;2.80;2.60;;;20.00;50.40;;;;;;926868;151;27351;-77
2023/06/06 00:15:09;;;;;;;3.02;2.67;;;20.00;50.50;;;;;;945172;149;27366;-77
2023/06/06 00:17:38;;;;;;;2.77;2.58;;;19.90;50.60;;;;;;968778;145;27339;-77
2023/06/06 00:20:08;;;;;;;2.80;2.60;;;19.90;50.60;;;;;;945118;149;27750;-77
2023/06/06 00:22:29;;;;;;;2.70;2.50;;;19.80;50.70;;;;;;967454;145;27280;-76
2023/06/06 00:24:55;;;;;;;3.17;2.90;;;19.80;50.90;;;;;;950144;147;27355;-77
2023/06/06 00:27:22;;;;;;;3.10;2.90;;;19.80;50.90;;;;;;944763;150;28256;-76
2023/06/06 00:29:49;;;;;;;2.72;2.52;;;19.70;51.00;;;;;;935175;149;27820;-77
2023/06/06 00:32:15;;;;;;;3.08;2.87;;;19.60;51.10;;;;;;942831;148;27369;-77
2023/06/06 00:34:42;;;;;;;4.05;3.30;;;19.50;51.30;;;;;;951260;147;27298;-77
2023/06/06 00:37:08;;;;;;;3.17;2.98;;;19.50;51.60;;;;;;951191;147;27359;-77
2023/06/06 00:39:35;;;;;;;4.20;3.30;;;19.40;51.70;;;;;;944564;149;27412;-76
2023/06/06 00:42:01;;;;;;;5.00;3.40;;;19.30;51.90;;;;;;927154;150;27453;-76
2023/06/06 00:44:28;;;;;;;2.90;2.70;;;19.20;52.10;;;;;;950365;147;27367;-77
2023/06/06 00:46:55;;;;;;;3.85;3.30;;;19.20;52.40;;;;;;948601;147;27237;-77
2023/06/06 00:49:21;;;;;;;3.85;3.22;;;19.10;52.40;;;;;;950676;147;27309;-76
2023/06/06 00:51:48;;;;;;;3.37;3.12;;;19.00;52.60;;;;;;951060;147;27415;-76
2023/06/06 00:54:14;;;;;;;4.28;3.25;;;18.90;52.60;;;;;;951778;147;27342;-76
2023/06/06 00:56:42;;;;;;;3.40;3.10;;;18.80;52.80;;;;;;948994;147;27273;-76
2023/06/06 00:59:08;;;;;;;3.30;3.00;;;18.70;53.00;;;;;;943045;149;27424;-77
2023/06/06 01:01:34;;;;;;;3.08;2.87;;;18.60;53.10;;;;;;946511;149;27443;-76
2023/06/06 01:04:01;;;;;;;3.33;3.05;;;18.50;53.30;;;;;;946410;149;27447;-76
2023/06/06 01:06:27;;;;;;;3.08;2.87;;;18.50;53.50;;;;;;946481;149;27391;-77
2023/06/06 01:08:54;;;;;;;4.22;3.02;;;18.40;54.00;;;;;;946709;148;27340;-78
2023/06/06 01:11:21;;;;;;;3.20;2.90;;;18.40;54.00;;;;;;946379;148;27342;-78
2023/06/06 01:13:50;;;;;;;3.15;2.95;;;18.30;54.10;;;;;;944490;149;27372;-77
2023/06/06 01:16:17;;;;;;;2.87;2.67;;;18.20;54.20;;;;;;944850;149;27357;-77
2023/06/06 01:18:45;;;;;;;4.00;3.17;;;18.20;54.40;;;;;;946440;149;27301;-78
2023/06/06 01:21:10;;;;;;;3.42;3.22;;;18.10;54.50;;;;;;945568;149;27352;-78
2023/06/06 01:23:36;;;;;;;3.85;3.42;;;18.10;54.70;;;;;;946300;149;27386;-77
2023/06/06 01:26:06;;;;;;;4.47;2.87;;;18.10;54.90;;;;;;946174;149;27447;-77
2023/06/06 01:28:30;;;;;;;3.75;3.45;;;18.00;55.00;;;;;;945811;149;27294;-78
2023/06/06 01:30:56;;;;;;;3.55;3.22;;;18.00;55.20;;;;;;946961;149;27307;-78
2023/06/06 01:33:32;;;;;;;3.67;3.25;;;17.90;55.30;;;;;;946924;149;27354;-78
2023/06/06 01:36:19;;;;;;;4.15;3.75;;;17.90;55.50;;;;;;945946;149;27373;-78
2023/06/06 01:38:49;;;;;;;3.40;3.10;;;17.90;55.50;;;;;;945947;148;27356;-77
2023/06/06 01:41:16;;;;;;;3.42;3.22;;;17.80;55.30;;;;;;945581;149;27304;-77
2023/06/06 01:43:42;;;;;;;3.62;3.33;;;17.80;55.70;;;;;;946370;149;27415;-78
2023/06/06 01:46:09;;;;;;;3.63;3.33;;;17.80;55.90;;;;;;945779;149;27469;-77
2023/06/06 01:48:35;;;;;;;3.52;3.25;;;17.70;55.80;;;;;;946526;149;27755;-78
2023/06/06 01:51:02;;;;;;;3.85;3.00;;;17.70;56.00;;;;;;946482;149;27326;-78
2023/06/06 01:53:28;;;;;;;4.20;2.97;;;17.60;56.10;;;;;;947024;149;27347;-77
2023/06/06 01:55:55;;;;;;;3.47;3.17;;;17.60;56.10;;;;;;946436;149;27351;-77
2023/06/06 01:58:22;;;;;;;3.30;3.05;;;17.50;56.30;;;;;;946785;149;27362;-78
2023/06/06 02:00:48;;;;;;;3.45;3.15;;;17.50;56.40;;;;;;946370;149;27434;-77
2023/06/06 02:03:15;;;;;;;5.10;3.20;;;17.50;56.60;;;;;;946199;148;27309;-77
2023/06/06 02:05:41;;;;;;;3.40;3.10;;;17.40;56.60;;;;;;946048;149;27755;-77
2023/06/06 02:08:08;;;;;;;3.93;3.57;;;17.40;56.70;;;;;;946019;149;27383;-77
2023/06/06 02:10:34;;;;;;;3.17;2.87;;;17.30;56.80;;;;;;946202;149;27489;-78
2023/06/06 02:13:01;;;;;;;3.80;3.40;;;17.30;56.90;;;;;;946431;149;27449;-78
2023/06/06 02:15:29;;;;;;;3.50;3.20;;;17.30;57.00;;;;;;946387;149;27258;-78
2023/06/06 02:17:54;;;;;;;3.73;3.43;;;17.30;57.10;;;;;;947050;148;27336;-77
2023/06/06 02:20:21;;;;;;;4.03;3.50;;;17.20;57.20;;;;;;946755;149;27361;-77
2023/06/06 02:22:47;;;;;;;3.07;2.87;;;17.20;57.40;;;;;;946257;149;28018;-77
2023/06/06 02:25:14;;;;;;;3.53;3.23;;;17.10;57.30;;;;;;946064;149;27832;-77
2023/06/06 02:27:43;;;;;;;3.30;3.10;;;17.10;57.40;;;;;;946278;149;27349;-78
2023/06/06 02:30:07;;;;;;;3.70;3.40;;;17.10;57.60;;;;;;946118;149;27434;-77
2023/06/06 02:32:34;;;;;;;3.40;3.20;;;17.00;57.70;;;;;;946854;149;27376;-77
2023/06/06 02:35:01;;;;;;;3.20;2.90;;;17.00;57.70;;;;;;945847;149;27293;-78
2023/06/06 02:37:28;;;;;;;3.65;2.77;;;16.90;57.80;;;;;;946533;148;27318;-78
2023/06/06 02:40:02;;;;;;;3.63;3.33;;;16.80;57.90;;;;;;946069;149;27294;-74
2023/06/06 02:42:20;;;;;;;3.53;3.23;;;16.80;58.00;;;;;;941489;149;27365;-74
2023/06/06 02:44:47;;;;;;;3.75;3.45;;;16.70;58.10;;;;;;946505;149;27445;-74
2023/06/06 02:47:13;;;;;;;3.77;3.33;;;16.70;58.30;;;;;;946186;149;27429;-74
2023/06/06 02:49:40;;;;;;;3.77;3.03;;;16.70;58.40;;;;;;946602;149;27341;-74
2023/06/06 02:52:07;;;;;;;4.37;3.07;;;16.60;58.60;;;;;;946661;149;27301;-75
2023/06/06 02:54:33;;;;;;;3.70;3.40;;;16.60;58.80;;;;;;946434;149;27361;-74
2023/06/06 02:57:00;;;;;;;3.50;3.00;;;16.50;58.90;;;;;;946515;149;27365;-74
2023/06/06 02:59:26;;;;;;;4.47;3.62;;;16.50;59.00;;;;;;946564;148;27306;-75
2023/06/06 03:01:53;;;;;;;3.40;3.17;;;16.50;59.10;;;;;;946212;148;27310;-74
2023/06/06 03:04:21;;;;;;;3.53;3.23;;;16.40;59.30;;;;;;946067;148;27474;-74
2023/06/06 03:06:48;;;;;;;3.50;3.20;;;16.40;59.50;;;;;;946250;149;27344;-75
2023/06/06 03:09:13;;;;;;;3.70;3.37;;;16.40;59.60;;;;;;946187;149;27310;-75
2023/06/06 03:11:39;;;;;;;3.60;3.30;;;16.30;59.70;;;;;;946470;149;27330;-75
2023/06/06 03:14:06;;;;;;;4.60;3.80;;;16.30;59.80;;;;;;946482;149;27348;-75
2023/06/06 03:16:34;;;;;;;4.40;3.42;;;16.20;59.90;;;;;;946645;149;27449;-74
2023/06/06 03:18:59;;;;;;;4.07;3.37;;;16.20;60.00;;;;;;946263;149;27605;-74
2023/06/06 03:21:26;;;;;;;3.83;3.43;;;16.20;60.10;;;;;;946449;149;27329;-74
2023/06/06 03:23:52;;;;;;;4.77;3.47;;;16.20;60.40;;;;;;946559;149;27332;-75
2023/06/06 03:26:19;;;;;;;3.50;3.20;;;16.20;60.40;;;;;;946441;148;27431;-75
2023/06/06 03:28:45;;;;;;;4.50;3.27;;;16.10;60.30;;;;;;946431;149;27500;-74
2023/06/06 03:31:12;;;;;;;3.53;3.20;;;16.10;60.40;;;;;;946249;149;27337;-75
2023/06/06 03:33:38;;;;;;;3.93;3.63;;;16.10;60.60;;;;;;946156;149;27469;-75
2023/06/06 03:36:07;;;;;;;4.60;3.53;;;16.10;60.60;;;;;;945843;148;27344;-74
2023/06/06 03:38:32;;;;;;;3.33;3.13;;;16.10;60.70;;;;;;946777;148;27429;-74
2023/06/06 03:40:58;;;;;;;4.03;3.70;;;16.10;61.00;;;;;;946785;149;27450;-75
2023/06/06 03:43:25;;;;;;;4.30;3.90;;;16.10;61.10;;;;;;946545;148;27443;-75
2023/06/06 03:45:51;;;;;;;4.00;3.70;;;16.10;61.20;;;;;;946652;149;27295;-74
2023/06/06 03:48:18;;;;;;;3.77;3.47;;;16.10;61.40;;;;;;946739;149;27426;-74
2023/06/06 03:50:45;;;;;;;4.37;3.93;;;16.10;61.50;;;;;;946368;149;27361;-74
2023/06/06 03:53:11;;;;;;;3.85;3.45;;;16.10;61.50;;;;;;946055;149;27397;-74
2023/06/06 03:55:38;;;;;;;4.03;3.60;;;16.10;61.70;;;;;;946990;149;27336;-74
2023/06/06 03:58:04;;;;;;;3.92;3.50;;;16.10;61.90;;;;;;946552;148;27356;-74
2023/06/06 04:00:31;;;;;;;4.65;3.80;;;16.20;62.10;;;;;;946456;149;27328;-75
2023/06/06 04:02:57;;;;;;;3.83;3.53;;;16.20;62.00;;;;;;945800;149;27434;-74
2023/06/06 04:05:24;;;;;;;4.03;3.63;;;16.20;62.20;;;;;;946728;149;27313;-74
2023/06/06 04:07:51;;;;;;;3.65;3.35;;;16.30;62.30;;;;;;945581;148;27662;-74
2023/06/06 04:10:19;;;;;;;5.62;3.47;;;16.30;62.30;;;;;;946820;149;27356;-74
2023/06/06 04:12:44;;;;;;;4.50;3.50;;;16.30;62.30;;;;;;946464;148;27369;-74
2023/06/06 04:15:10;;;;;;;3.70;3.40;;;16.40;62.50;;;;;;946455;148;27368;-75
2023/06/06 04:17:37;;;;;;;4.10;3.70;;;16.40;62.50;;;;;;945786;149;27342;-75
2023/06/06 04:20:05;;;;;;;3.83;3.52;;;16.50;62.60;;;;;;946583;149;27320;-74
2023/06/06 04:22:30;;;;;;;4.33;3.90;;;16.50;62.60;;;;;;946445;149;27306;-75
2023/06/06 04:24:57;;;;;;;4.45;4.05;;;16.60;62.70;;;;;;946623;149;27465;-75
2023/06/06 04:27:23;;;;;;;4.33;4.03;;;16.70;62.70;;;;;;946187;149;27459;-74
2023/06/06 04:29:53;;;;;;;4.60;4.15;;;16.80;62.80;;;;;;946292;149;27406;-75
2023/06/06 04:32:18;;;;;;;4.70;4.03;;;16.80;62.80;;;;;;945581;148;27403;-74
2023/06/06 04:34:45;;;;;;;4.17;3.77;;;16.90;62.80;;;;;;947075;149;27391;-74
2023/06/06 04:37:12;;;;;;;4.37;3.98;;;17.00;62.70;;;;;;946684;149;27379;-75
2023/06/06 04:39:36;;;;;;;4.67;4.15;;;17.10;62.80;;;;;;945499;149;27399;-74
2023/06/06 04:42:05;;;;;;;7.37;4.08;;;17.20;62.70;;;;;;945683;149;27382;-75
2023/06/06 04:44:29;;;;;;;4.72;4.33;;;17.30;62.80;;;;;;946246;149;27306;-74
2023/06/06 04:47:00;;;;;;;6.47;4.10;;;17.40;62.70;;;;;;947123;149;27862;-74
2023/06/06 04:49:23;;;;;;;4.37;3.98;;;17.50;62.70;;;;;;946078;148;27364;-74
2023/06/06 04:51:50;;;;;;;4.10;3.70;;;17.60;62.50;;;;;;946598;149;27409;-74
2023/06/06 04:54:16;;;;;;;4.80;4.40;;;17.70;62.70;;;;;;946361;149;27387;-74
2023/06/06 04:56:44;;;;;;;4.97;3.75;;;17.90;62.90;;;;;;946464;149;27317;-74
2023/06/06 04:59:09;;;;;;;3.90;3.60;;;18.20;63.30;;;;;;946547;148;27469;-74
2023/06/06 05:01:36;;;;;;;3.80;3.42;;;18.50;63.90;;;;;;945708;149;27379;-74
2023/06/06 05:04:05;;;;;;;4.30;3.52;;;19.00;65.10;;;;;;945867;148;27326;-75
2023/06/06 05:06:33;;;;;;;3.85;3.52;;;19.50;64.20;;;;;;946660;149;27262;-74
2023/06/06 05:09:00;;;;;;;4.28;3.58;;;20.10;64.20;;;;;;946290;149;27353;-75
2023/06/06 05:11:25;;;;;;;3.95;3.65;;;20.80;63.90;;;;;;945693;149;27366;-75
2023/06/06 05:13:51;;;;;;;3.90;3.50;;;21.60;63.40;;;;;;946272;149;27287;-75
2023/06/06 05:16:18;;;;;;;3.35;3.05;;;22.40;62.60;;;;;;946493;149;27302;-75
2023/06/06 05:18:45;;;;;;;5.08;3.80;;;23.20;61.40;;;;;;946316;149;27431;-75
2023/06/06 05:21:11;;;;;;;3.87;3.52;;;24.10;60.30;;;;;;946313;149;27391;-75
2023/06/06 05:23:38;;;;;;;3.75;3.25;;;24.90;59.10;;;;;;946572;149;27267;-75
2023/06/06 05:26:04;;;;;;;3.70;3.40;;;25.70;57.90;;;;;;945879;148;27314;-75
2023/06/06 05:28:31;;;;;;;8.38;4.30;;;26.50;56.90;;;;;;946935;149;27415;-75
2023/06/06 05:30:57;;;;;;;5.00;4.05;;;27.20;55.60;;;;;;946654;148;27358;-75
2023/06/06 05:33:27;;;;;;;4.08;3.65;;;27.90;54.60;;;;;;946030;149;27353;-75
2023/06/06 05:35:51;;;;;;;3.72;3.40;;;28.60;53.80;;;;;;945343;149;27319;-75
2023/06/06 05:38:18;;;;;;;4.70;4.17;;;29.20;53.00;;;;;;946162;148;27325;-75
2023/06/06 05:40:44;;;;;;;5.92;4.00;;;29.90;52.10;;;;;;946311;149;27388;-75
2023/06/06 05:43:10;;;;;;;4.67;4.25;;;30.40;50.50;;;;;;946359;149;27451;-75
2023/06/06 05:45:37;;;;;;;5.95;4.08;;;31.00;50.30;;;;;;946326;149;27240;-75
2023/06/06 05:48:04;;;;;;;12.35;4.20;;;31.60;49.40;;;;;;945343;149;27346;-75
2023/06/06 05:50:30;;;;;;;3.95;3.58;;;32.00;48.60;;;;;;946391;148;27302;-75
2023/06/06 05:52:57;;;;;;;4.12;3.75;;;32.50;47.90;;;;;;946409;148;27370;-75
2023/06/06 05:55:32;;;;;;;3.60;3.17;;;33.00;47.20;;;;;;946187;148;27349;-75
2023/06/06 05:57:59;;;;;;;4.67;3.55;;;33.50;46.50;;;;;;945682;149;27402;-73
2023/06/06 06:00:25;;;;;;;3.33;2.98;;;33.90;45.60;;;;;;946421;148;27331;-73
2023/06/06 06:02:53;;;;;;;7.62;3.40;;;34.30;44.70;;;;;;946387;149;27346;-73
2023/06/06 06:05:18;;;;;;;3.65;3.33;;;34.60;44.00;;;;;;946319;149;26273;-73
2023/06/06 06:07:47;;;;;;;4.53;3.20;;;35.00;43.50;;;;;;945894;149;27502;-73
2023/06/06 06:10:12;;;;;;;4.35;3.20;;;35.20;43.00;;;;;;945984;149;26289;-73
2023/06/06 06:12:38;;;;;;;2.85;2.60;;;35.60;42.50;;;;;;946645;149;26241;-74
2023/06/06 06:15:05;;;;;;;3.25;2.90;;;35.90;42.00;;;;;;946594;149;26376;-73
2023/06/06 06:17:31;;;;;;;3.72;2.83;;;36.20;41.50;;;;;;945523;148;26402;-73
2023/06/06 06:20:00;;;;;;;3.05;2.85;;;36.50;41.00;;;;;;946123;149;26283;-73
2023/06/06 06:22:25;;;;;;;3.52;3.22;;;36.90;40.00;;;;;;946116;148;26318;-73
2023/06/06 06:24:51;;;;;;;3.17;2.87;;;37.20;40.20;;;;;;946297;149;26233;-73
2023/06/06 06:27:18;;;;;;;3.40;3.10;;;37.60;39.80;;;;;;948608;148;26325;-73
2023/06/06 06:29:45;;;;;;;3.45;2.98;;;38.00;39.40;;;;;;953790;147;26231;-73
2023/06/06 06:32:11;;;;;;;3.00;2.80;;;38.40;38.70;;;;;;953993;148;26266;-73
2023/06/06 06:34:37;;;;;;;3.10;2.77;;;38.70;38.00;;;;;;953743;148;26204;-73
2023/06/06 06:37:04;;;;;;;3.30;2.90;;;39.00;37.40;;;;;;954442;150;27439;-73
2023/06/06 06:39:31;;;;;;;2.25;2.05;;;39.20;36.70;;;;;;954471;150;26275;-73
2023/06/06 06:41:57;;;;;;;2.37;2.22;;;39.40;36.10;;;;;;954216;150;27342;-73
2023/06/06 06:44:24;;;;;;;2.67;2.47;;;39.60;35.80;;;;;;954037;150;26236;-73
2023/06/06 06:46:50;;;;;;;2.47;2.27;;;39.90;35.40;;;;;;954299;150;26447;-73
2023/06/06 06:49:17;;;;;;;5.35;2.50;;;40.10;35.20;;;;;;953812;150;26274;-73
2023/06/06 06:51:44;;;;;;;2.40;2.30;;;40.40;34.70;;;;;;954666;150;26248;-73
2023/06/06 06:54:11;;;;;;;3.80;2.70;;;40.70;34.60;;;;;;954068;150;26173;-73
2023/06/06 06:56:37;;;;;;;2.87;2.40;;;40.90;34.10;;;;;;954107;150;26297;-73
2023/06/06 06:59:05;;;;;;;2.37;2.17;;;41.30;33.80;;;;;;954589;150;26394;-73
2023/06/06 07:01:32;;;;;;;2.25;2.15;;;41.60;33.30;;;;;;954147;150;26287;-73
2023/06/06 07:03:57;;;;;;;3.27;2.67;;;41.90;32.90;;;;;;953830;150;26219;-72
2023/06/06 07:06:23;;;;;;;2.67;2.47;;;42.30;32.50;;;;;;954268;150;26240;-73
2023/06/06 07:08:52;;;;;;;2.80;2.47;;;42.60;32.20;;;;;;954531;150;26248;-73
2023/06/06 07:11:16;;;;;;;2.75;2.55;;;42.80;31.70;;;;;;954144;149;26271;-73
2023/06/06 07:13:43;;;;;;;2.45;2.25;;;43.10;31.20;;;;;;954622;150;26176;-73
2023/06/06 07:16:10;;;;;;;2.60;2.40;;;43.40;30.80;;;;;;954004;147;26255;-73
2023/06/06 07:18:36;;;;;;;2.77;2.58;;;43.70;30.50;;;;;;953234;150;26247;-73
2023/06/06 07:21:03;;;;;;;3.90;2.33;;;44.00;30.20;;;;;;953855;148;26317;-73
2023/06/06 07:23:31;;;;;;;2.72;2.52;;;44.20;29.90;;;;;;953771;150;26726;-73
2023/06/06 07:25:56;;;;;;;2.47;2.27;;;44.50;29.50;;;;;;953425;150;26235;-73
2023/06/06 07:28:24;;;;;;;2.65;2.45;;;44.70;29.20;;;;;;950457;149;26332;-73
2023/06/06 07:30:49;;;;;;;2.60;2.40;;;45.00;29.10;;;;;;946052;149;26208;-73
2023/06/06 07:33:16;;;;;;;2.60;2.40;;;45.20;28.80;;;;;;946461;148;26376;-73
2023/06/06 07:35:42;;;;;;;2.47;2.27;;;45.40;28.60;;;;;;945832;149;26330;-72
2023/06/06 07:38:09;;;;;;;3.00;2.50;;;45.60;28.30;;;;;;946207;149;26212;-73
2023/06/06 07:40:35;;;;;;;2.45;2.30;;;45.70;28.00;;;;;;945853;149;26225;-73
2023/06/06 07:43:02;;;;;;;2.80;2.42;;;45.90;27.80;;;;;;946217;149;26259;-73
2023/06/06 07:45:29;;;;;;;2.42;2.20;;;46.10;27.90;;;;;;945337;148;26368;-73
2023/06/06 07:47:56;;;;;;;2.47;2.20;;;46.20;27.70;;;;;;945586;148;26287;-73
2023/06/06 07:50:22;;;;;;;2.47;2.27;;;46.40;27.40;;;;;;945970;149;26184;-73
2023/06/06 07:52:48;;;;;;;2.15;1.90;;;46.60;27.20;;;;;;946550;149;26237;-73
2023/06/06 07:55:16;;;;;;;1.98;1.87;;;46.60;26.80;;;;;;946464;148;26302;-73
2023/06/06 07:57:45;;;;;;;2.47;2.27;;;46.70;26.70;;;;;;946450;149;26604;-73
2023/06/06 08:00:12;;;;;;;2.90;2.40;;;46.70;26.60;;;;;;946172;148;26672;-73
2023/06/06 08:02:38;;;;;;;2.98;2.17;;;46.70;26.50;;;;;;946015;149;26319;-73
2023/06/06 08:05:04;;;;;;;2.90;2.30;;;46.80;26.30;;;;;;946509;149;26319;-73
2023/06/06 08:07:31;;;;;;;2.45;2.25;;;46.90;26.20;;;;;;946120;149;26362;-73
2023/06/06 08:09:57;;;;;;;2.30;2.15;;;47.00;26.00;;;;;;946207;149;26381;-73
2023/06/06 08:12:24;;;;;;;2.85;1.95;;;47.00;25.80;;;;;;946417;149;26206;-72
2023/06/06 08:14:51;;;;;;;2.27;2.08;;;47.10;25.50;;;;;;945943;149;26254;-73
2023/06/06 08:17:17;;;;;;;3.58;1.80;;;47.20;25.60;;;;;;946319;149;26269;-73
2023/06/06 08:19:44;;;;;;;2.02;1.90;;;47.30;25.60;;;;;;946274;149;26264;-73
2023/06/06 08:22:10;;;;;;;2.12;2.00;;;47.40;25.50;;;;;;946471;149;26177;-73
2023/06/06 08:24:37;;;;;;;2.55;2.35;;;47.60;25.30;;;;;;946502;149;26241;-73
2023/06/06 08:27:03;;;;;;;1.82;1.72;;;47.90;25.00;;;;;;946360;149;26243;-73
2023/06/06 08:29:30;;;;;;;2.30;1.87;;;47.90;24.60;;;;;;946802;149;26321;-73
2023/06/06 08:31:57;;;;;;;2.25;2.10;;;47.90;24.50;;;;;;946744;149;26263;-73
2023/06/06 08:34:23;;;;;;;2.25;2.05;;;47.90;24.30;;;;;;946538;149;26230;-73
2023/06/06 08:36:50;;;;;;;1.80;1.70;;;47.90;24.20;;;;;;947181;149;26245;-73
2023/06/06 08:39:18;;;;;;;2.27;2.08;;;47.70;24.20;;;;;;946309;149;26182;-73
2023/06/06 08:41:43;;;;;;;2.42;2.22;;;47.60;24.10;;;;;;946074;149;26275;-73
2023/06/06 08:44:10;;;;;;;2.30;2.10;;;47.40;24.10;;;;;;946253;149;26368;-73
2023/06/06 08:46:36;;;;;;;2.40;2.20;;;47.30;23.90;;;;;;946048;149;26281;-73
2023/06/06 08:49:03;;;;;;;2.70;2.50;;;47.20;24.00;;;;;;946065;149;26182;-73
2023/06/06 08:51:29;;;;;;;3.22;1.70;;;47.00;23.90;;;;;;946240;149;26275;-73
2023/06/06 08:53:56;;;;;;;2.80;2.15;;;46.90;24.10;;;;;;946442;149;26722;-73
2023/06/06 08:56:23;;;;;;;2.20;2.00;;;46.80;24.10;;;;;;945863;149;26283;-73
2023/06/06 08:58:49;;;;;;;2.22;1.87;;;46.90;24.30;;;;;;945769;149;26319;-73
2023/06/06 09:01:16;;;;;;;2.83;2.27;;;47.00;24.30;;;;;;946119;149;26232;-72
2023/06/06 09:03:43;;;;;;;2.20;2.00;;;47.10;24.20;;;;;;946374;149;26265;-73
2023/06/06 09:06:09;;;;;;;2.85;2.00;;;47.30;24.50;;;;;;946005;149;26273;-72
2023/06/06 09:08:35;;;;;;;2.25;2.10;;;47.50;23.80;;;;;;946035;149;26221;-73
2023/06/06 09:11:02;;;;;;;1.98;1.87;;;47.60;23.60;;;;;;946355;149;26313;-73
2023/06/06 09:13:29;;;;;;;1.70;1.60;;;47.60;23.40;;;;;;948523;147;26240;-73
2023/06/06 09:15:55;;;;;;;2.27;2.10;;;47.60;23.50;;;;;;951228;147;26243;-73
2023/06/06 09:18:22;;;;;;;2.08;1.98;;;47.60;23.50;;;;;;952132;147;26274;-73
2023/06/06 09:20:54;;;;;;;2.40;1.85;;;47.60;23.50;;;;;;926557;150;26220;-73
2023/06/06 09:23:21;;;;;;;2.45;2.00;;;47.60;23.20;;;;;;942884;149;26274;-73
2023/06/06 09:25:50;;;;;;;1.95;1.85;;;47.60;23.10;;;;;;950987;147;26331;-73
2023/06/06 09:28:18;;;;;;;2.20;1.90;;;47.50;23.00;;;;;;951322;147;26333;-73
2023/06/06 09:30:43;;;;;;;2.08;1.98;;;47.60;23.20;;;;;;964090;145;26249;-73
2023/06/06 09:33:10;;;;;;;1.82;1.67;;;47.60;23.20;;;;;;968881;145;26142;-73
2023/06/06 09:35:37;;;;;;;2.00;1.80;;;47.80;23.00;;;;;;968921;145;26333;-73
2023/06/06 09:38:07;;;;;;;1.60;1.50;;;47.90;22.80;;;;;;968967;145;26249;-73
2023/06/06 09:40:33;;;;;;;2.15;1.45;;;48.00;22.60;;;;;;956004;147;26300;-73
2023/06/06 09:42:59;;;;;;;1.70;1.60;;;48.00;22.10;;;;;;975273;144;26204;-73
2023/06/06 09:45:26;;;;;;;3.45;1.72;;;47.90;21.80;;;;;;954966;147;26281;-73
2023/06/06 09:47:52;;;;;;;2.12;1.77;;;47.70;21.70;;;;;;955106;147;26280;-73
2023/06/06 09:50:19;;;;;;;2.00;1.90;;;47.50;21.10;;;;;;954359;147;26259;-73
2023/06/06 09:52:45;;;;;;;5.45;1.85;;;47.20;21.00;;;;;;937869;150;26229;-73
2023/06/06 09:55:12;;;;;;;2.22;1.80;;;46.80;20.90;;;;;;939220;150;26273;-72
2023/06/06 09:57:39;;;;;;;3.92;2.20;;;46.20;20.80;;;;;;968559;145;26249;-72
2023/06/06 10:00:12;;;;;;;1.60;1.50;;;45.70;21.10;;;;;;968613;145;26256;-73
2023/06/06 10:02:35;;;;;;;3.00;1.92;;;45.00;20.80;;;;;;967260;145;26266;-72
2023/06/06 10:05:01;;;;;;;1.60;1.50;;;44.30;21.00;;;;;;968596;145;26231;-72
2023/06/06 10:07:28;;;;;;;3.08;1.92;;;43.80;21.40;;;;;;968930;145;26229;-73
2023/06/06 10:09:54;;;;;;;2.15;1.92;;;43.30;21.60;;;;;;968683;145;26276;-73
2023/06/06 10:12:21;;;;;;;1.77;1.47;;;42.80;21.50;;;;;;968742;145;26219;-73
2023/06/06 10:14:48;;;;;;;1.90;1.80;;;42.30;21.60;;;;;;968972;145;26213;-73
2023/06/06 10:17:14;;;;;;;1.80;1.70;;;42.00;21.80;;;;;;969530;145;26297;-73
2023/06/06 10:19:41;;;;;;;2.00;1.90;;;41.60;21.80;;;;;;968780;145;26225;-72
2023/06/06 10:22:07;;;;;;;2.62;2.42;;;41.20;21.90;;;;;;968224;145;26344;-72
2023/06/06 10:24:34;;;;;;;2.52;2.00;;;40.80;22.00;;;;;;968560;145;26217;-73
2023/06/06 10:27:01;;;;;;;2.20;2.10;;;40.50;22.20;;;;;;967440;145;26201;-79
2023/06/06 10:29:30;;;;;;;2.02;1.82;;;40.10;22.20;;;;;;968252;145;26178;-79
2023/06/06 10:31:59;;;;;;;3.52;1.77;;;39.60;22.40;;;;;;967934;145;26260;-79
2023/06/06 10:34:25;;;;;;;2.20;2.00;;;39.20;22.50;;;;;;949651;148;27384;-79
2023/06/06 10:36:52;;;;;;;2.67;2.08;;;38.80;22.80;;;;;;959290;147;26173;-79
2023/06/06 10:39:21;;;;;;;2.17;1.98;;;38.40;23.00;;;;;;969312;145;27344;-79
2023/06/06 10:41:53;;;;;;;2.30;2.10;;;38.00;23.00;;;;;;968733;145;27422;-79
2023/06/06 10:44:26;;;;;;;1.95;1.85;;;37.70;23.50;;;;;;945347;148;27420;-79
2023/06/06 10:46:52;;;;;;;3.90;2.75;;;37.40;23.70;;;;;;944351;148;27433;-78
2023/06/06 10:49:20;;;;;;;2.60;2.40;;;37.10;23.90;;;;;;949158;148;27351;-78
2023/06/06 10:51:45;;;;;;;3.05;2.30;;;36.80;23.80;;;;;;951306;148;27362;-79
2023/06/06 10:54:21;;;;;;;3.40;2.60;;;36.60;24.00;;;;;;960270;147;27392;-79
2023/06/06 10:56:47;;;;;;;2.55;2.35;;;36.30;24.70;;;;;;945544;147;27450;-78
2023/06/06 10:59:14;;;;;;;2.52;2.33;;;36.10;24.60;;;;;;951400;148;27473;-79
2023/06/06 11:01:41;;;;;;;3.40;3.10;;;35.80;24.80;;;;;;967892;148;27327;-78
2023/06/06 11:04:19;;;;;;;3.27;2.47;;;35.50;25.00;;;;;;967670;148;27583;-79
2023/06/06 11:06:46;;;;;;;2.45;2.25;;;35.30;25.10;;;;;;967261;148;27385;-80
2023/06/06 11:09:22;;;;;;;2.27;2.17;;;35.10;25.40;;;;;;967644;148;27375;-80
2023/06/06 11:11:48;;;;;;;2.95;2.30;;;34.90;25.70;;;;;;968049;148;27328;-80
2023/06/06 11:14:15;;;;;;;3.70;2.12;;;34.70;25.80;;;;;;968625;145;27275;-80
2023/06/06 11:16:41;;;;;;;2.95;2.75;;;34.50;26.00;;;;;;967995;145;27444;-80
2023/06/06 11:19:21;;;;;;;2.60;2.30;;;34.30;26.20;;;;;;968803;145;27410;-80
2023/06/06 11:21:40;;;;;;;2.90;2.70;;;34.10;26.20;;;;;;964866;145;27313;-80
2023/06/06 11:24:06;;;;;;;2.15;1.95;;;33.90;26.30;;;;;;969095;145;27357;-80
2023/06/06 11:26:36;;;;;;;5.17;2.80;;;33.70;26.30;;;;;;968667;145;27386;-80
2023/06/06 11:29:02;;;;;;;2.58;2.20;;;33.50;26.50;;;;;;952288;148;27459;-80
2023/06/06 11:31:30;;;;;;;6.22;2.20;;;33.30;26.60;;;;;;959420;145;27351;-79
2023/06/06 11:34:05;;;;;;;2.67;1.98;;;33.10;26.50;;;;;;951348;147;27272;-80
2023/06/06 11:36:33;;;;;;;2.47;2.27;;;33.00;26.50;;;;;;942576;149;27401;-80
2023/06/06 11:39:00;;;;;;;2.60;2.40;;;32.90;26.60;;;;;;942921;149;27435;-80
2023/06/06 11:41:30;;;;;;;2.52;2.10;;;32.80;26.80;;;;;;942700;149;28058;-79
2023/06/06 11:43:56;;;;;;;2.02;1.92;;;32.60;26.80;;;;;;942985;149;27424;-79
2023/06/06 11:46:23;;;;;;;2.22;2.12;;;32.50;26.80;;;;;;950113;147;26265;-79
2023/06/06 11:48:55;;;;;;;2.58;2.05;;;32.30;26.80;;;;;;951453;147;27320;-80
2023/06/06 11:51:22;;;;;;;2.92;2.52;;;32.20;27.00;;;;;;951448;147;27315;-80
2023/06/06 11:53:49;;;;;;;2.40;2.17;;;32.00;27.20;;;;;;950990;147;27289;-80
2023/06/06 11:56:15;;;;;;;4.37;2.47;;;31.90;27.40;;;;;;950637;147;27374;-80
2023/06/06 11:58:42;;;;;;;1.90;1.80;;;31.80;27.50;;;;;;951290;147;27366;-79
2023/06/06 12:01:11;;;;;;;2.30;2.10;;;31.80;27.80;;;;;;951528;147;27413;-79
2023/06/06 12:03:38;;;;;;;2.70;2.50;;;31.80;27.90;;;;;;951197;147;27249;-79
2023/06/06 12:06:07;;;;;;;2.20;2.00;;;31.70;28.10;;;;;;949999;147;27280;-79
2023/06/06 12:08:33;;;;;;;5.47;2.30;;;31.70;28.10;;;;;;927469;150;27477;-79
2023/06/06 12:11:26;;;;;;;2.35;2.15;;;31.60;28.20;;;;;;927712;149;27366;-79
2023/06/06 12:13:51;;;;;;;2.05;1.85;;;31.50;28.20;;;;;;925939;149;27367;-79
2023/06/06 12:16:23;;;;;;;3.85;2.10;;;31.30;28.20;;;;;;929510;149;27260;-78
2023/06/06 12:18:50;;;;;;;2.50;2.20;;;31.20;28.40;;;;;;943214;149;27395;-78
2023/06/06 12:21:17;;;;;;;2.47;2.17;;;31.00;28.60;;;;;;943411;149;27385;-78
2023/06/06 12:23:43;;;;;;;2.67;2.45;;;30.80;28.80;;;;;;942903;149;27460;-78
2023/06/06 12:26:12;;;;;;;3.55;2.92;;;30.70;29.30;;;;;;943000;149;27267;-79
2023/06/06 12:28:58;;;;;;;3.12;2.35;;;30.60;29.40;;;;;;942991;149;27450;-79
2023/06/06 12:31:30;;;;;;;4.90;2.45;;;30.50;29.60;;;;;;948193;149;27377;-79
2023/06/06 12:33:54;;;;;;;3.52;2.33;;;30.40;29.40;;;;;;953926;148;27381;-78
2023/06/06 12:36:21;;;;;;;2.85;2.30;;;30.30;29.60;;;;;;953982;150;27438;-78
2023/06/06 12:38:56;;;;;;;5.22;2.15;;;30.20;29.80;;;;;;954442;148;27452;-78
2023/06/06 12:41:22;;;;;;;1.98;1.87;;;30.10;29.90;;;;;;953436;150;27389;-78
2023/06/06 12:43:49;;;;;;;3.47;2.25;;;30.00;30.00;;;;;;954655;150;27523;-78
2023/06/06 12:46:16;;;;;;;2.22;2.02;;;29.90;30.20;;;;;;954050;148;27407;-79